createdAt,value
2022-12-09T00:08:55.468Z,35.00
2022-12-09T00:19:01.171Z,38.10
2022-12-09T00:29:06.846Z,36.20
2022-12-09T00:39:13.841Z,42.70
2022-12-09T00:49:39.910Z,37.00
2022-12-09T00:59:45.532Z,41.60
2022-12-09T01:10:12.694Z,43.00
2022-12-09T01:30:43.585Z,42.30
2022-12-09T01:40:49.444Z,40.30
2022-12-09T01:50:58.910Z,45.30
2022-12-09T02:01:04.916Z,41.70
2022-12-09T02:21:24.412Z,59.90
2022-12-09T02:31:47.061Z,57.00
2022-12-09T02:42:10.162Z,51.40
2022-12-09T02:52:17.718Z,53.90
2022-12-09T03:02:49.174Z,47.60
2022-12-09T03:13:02.050Z,48.00
2022-12-09T03:23:10.494Z,43.00
2022-12-09T03:33:19.711Z,42.30
2022-12-09T03:43:28.704Z,45.00
2022-12-09T03:53:40.243Z,47.60
2022-12-09T04:04:07.796Z,48.70
2022-12-09T04:14:15.727Z,49.60
2022-12-09T04:24:22.109Z,40.70
2022-12-09T04:34:27.859Z,39.80
2022-12-09T04:44:33.513Z,36.80
2022-12-09T04:54:39.266Z,37.00
2022-12-09T05:04:47.032Z,41.80
2022-12-09T05:14:52.956Z,40.60
2022-12-09T05:24:58.872Z,37.40
2022-12-09T05:35:05.131Z,31.60
2022-12-09T05:45:12.535Z,37.10
2022-12-09T05:55:18.421Z,41.00
2022-12-09T06:05:33.904Z,41.00
2022-12-09T06:15:40.346Z,42.30
2022-12-09T06:36:12.673Z,39.20
2022-12-09T06:46:27.159Z,42.20
2022-12-09T07:06:40.239Z,42.10
2022-12-09T07:16:56.645Z,44.20
2022-12-09T07:27:07.785Z,56.60
2022-12-09T07:37:15.687Z,70.20
2022-12-09T07:47:21.380Z,64.40
2022-12-09T07:57:27.302Z,54.50
2022-12-09T08:07:34.799Z,60.00
2022-12-09T08:17:42.919Z,63.40
2022-12-09T08:27:48.670Z,49.30
2022-12-09T08:37:54.661Z,59.00
2022-12-09T08:48:00.440Z,52.50
2022-12-09T08:58:06.404Z,38.50
2022-12-09T09:08:11.921Z,37.00
2022-12-09T09:18:17.707Z,35.20
2022-12-09T09:28:28.920Z,30.80
2022-12-09T09:38:36.739Z,36.10
2022-12-09T09:48:43.130Z,30.60
2022-12-09T09:58:58.109Z,27.10
2022-12-09T10:09:13.354Z,33.10
2022-12-09T10:19:25.990Z,28.30
2022-12-09T10:29:49.352Z,29.80
2022-12-09T10:39:59.480Z,37.90
2022-12-09T10:50:07.193Z,42.20
2022-12-09T11:00:32.721Z,40.60
2022-12-09T11:10:49.357Z,40.60
2022-12-09T11:21:01.172Z,39.10
2022-12-09T11:31:33.469Z,39.10
2022-12-09T11:41:58.097Z,27.20
2022-12-09T11:52:08.085Z,23.80
2022-12-09T12:02:27.151Z,28.90
2022-12-09T12:12:41.857Z,28.20
2022-12-09T12:23:10.503Z,28.50
2022-12-09T12:44:32.390Z,30.40
2022-12-09T12:54:49.796Z,32.70
2022-12-09T13:05:00.282Z,42.60
2022-12-09T13:15:11.410Z,40.90
2022-12-09T13:25:23.663Z,39.50
2022-12-09T13:35:35.778Z,43.90
2022-12-09T13:45:52.791Z,49.70
2022-12-09T14:06:06.235Z,42.90
2022-12-09T14:16:36.007Z,50.40
2022-12-09T14:26:45.330Z,50.60
2022-12-09T14:36:57.627Z,53.20
2022-12-09T14:47:17.561Z,54.90
2022-12-09T14:57:26.286Z,50.30
2022-12-09T15:07:33.461Z,54.90
2022-12-09T15:17:43.339Z,59.00
2022-12-09T15:28:02.774Z,54.50
2022-12-09T15:38:10.921Z,47.00
2022-12-09T15:48:20.599Z,51.40
2022-12-09T15:58:30.204Z,58.60
2022-12-09T16:08:38.407Z,49.40
2022-12-09T16:18:51.311Z,51.60
2022-12-09T16:29:00.614Z,62.20
2022-12-09T16:39:42.958Z,70.40
2022-12-09T16:49:49.619Z,62.70
2022-12-09T17:09:59.502Z,61.70
2022-12-09T17:20:05.474Z,69.80
2022-12-09T17:30:12.935Z,69.40
2022-12-09T17:40:18.441Z,70.50
2022-12-09T17:50:23.913Z,69.30
2022-12-09T18:00:29.423Z,68.80
2022-12-09T18:10:35.302Z,65.60
2022-12-09T18:20:41.377Z,72.10
2022-12-09T18:30:47.100Z,71.90
2022-12-09T18:41:04.534Z,67.40
2022-12-09T18:51:17.087Z,73.30
2022-12-09T19:01:25.141Z,74.30
2022-12-09T19:11:33.597Z,77.00
2022-12-09T19:21:39.873Z,69.40
2022-12-09T19:31:47.055Z,71.80
2022-12-09T19:41:54.525Z,63.60
2022-12-09T19:52:00.293Z,60.10
2022-12-09T20:02:08.030Z,59.20
2022-12-09T20:12:13.635Z,61.20
2022-12-09T20:22:19.262Z,51.50
2022-12-09T20:32:26.136Z,62.80
2022-12-09T20:42:31.718Z,62.40
2022-12-09T20:52:37.199Z,56.60
2022-12-09T21:02:42.717Z,57.80
2022-12-09T21:12:48.259Z,82.30
2022-12-09T21:23:24.800Z,75.90
2022-12-09T21:33:19.644Z,73.10
2022-12-09T21:43:27.509Z,68.10
2022-12-09T21:53:33.952Z,72.70
2022-12-09T22:03:43.027Z,68.10
2022-12-09T22:13:48.829Z,62.50
2022-12-09T22:23:55.923Z,71.00
2022-12-09T22:34:05.519Z,74.70
2022-12-09T22:44:12.606Z,70.10
2022-12-09T22:54:18.174Z,74.40
2022-12-09T23:04:44.281Z,64.30
2022-12-09T23:14:49.792Z,57.50
2022-12-09T23:24:55.445Z,55.00
2022-12-09T23:35:05.870Z,52.20
2022-12-09T23:45:13.710Z,53.60
2022-12-09T23:55:19.502Z,52.60
